Historyczne dane pomiarowe

Dodano dane terminowe – wersja testowa.

Dane z okresu 1951-2019

Wersja bazy: 1.34 [2019-03-16, lista zmian], aktualizacja planowana na 2019-04-15

Dane meteo z obszaru Polski uzyskane na podstawie danych udostępnionych przez Instytut Meteorologii i Gospodarki Wodnej – Państwowy Instytut Badawczy.

 

Wybierz Datę:    

       

TemperaturaWilgotnośćWiatrCiśnienieOpadyŚniegCzas trwania zjawisk
 Stacja t tx tn tng RH VA  wxwx mslp ppp RRR   cm mm wxwxwxwxwxwxwx
1956-11-09 -0.6 3.3 -2.0 -3.6 76.3- 1.3 3.3---- 0.0------------
1956-11-08 1.0 4.5 -2.0 -5.0 79.8- 3.7 1.0---- 0.0------------
1956-11-07 1.8 3.2 0.4 -1.4 95.5- 8.0 0.3---- 0.2------------
1956-11-06 2.4 5.5 0.2 -0.9 86.3- 6.7 2.3---- 4.5------------
1956-11-05 5.5 8.2 3.5 2.9 80.3- 5.0 4.3---- 2.4------------
1956-11-04 3.4 4.3 0.1 -2.5 89.5- 8.0 1.7---- 1.2------------
1956-11-03 0.9 5.5 -2.9 -8.7 88.3- 3.0 1.0---- 0.0------------
1956-11-02 1.3 6.8 -1.5 0.6 87.0- 4.7 0.0---- 0.6------------
1956-11-01 0.0 1.7 -6.5 -9.1 90.5- 7.3 1.7---- 1.0------------
1956-10-31 -4.0 1.2 -6.1-11.6 86.0- 1.0 2.0---- 0.0------------
1956-10-30 -0.2 1.6 -0.7 -5.0 91.8- 5.3 3.3---- 0.1------------
1956-10-29 2.9 7.3 1.2 0.6 95.8- 8.0 2.3---- 3.7------------
1956-10-28 7.7 8.7 6.3 1.8 95.0- 8.0 2.3---- 0.8------------
1956-10-27 6.3 7.3 1.6 -5.8 95.5- 8.0 4.0---- 14.6------------
1956-10-26 5.0 8.9 2.5 -4.5 89.8- 3.7 0.3---- 0.0------------
1956-10-25 8.8 13.2 6.8 5.0 87.8- 3.7 2.0---- 2.0------------
1956-10-24 12.8 14.7 10.3 4.8 85.8- 7.7 2.3---- 0.0------------
1956-10-23 10.8 12.6 9.6 5.0 81.8- 7.7 2.7---- 0.0------------
1956-10-22 11.7 12.6 11.1 6.5 79.5- 8.0 3.3---- 0.0------------
1956-10-21 12.6 13.7 10.6 3.3 86.5- 8.0 2.7---- 0.0------------
1956-10-20 10.7 12.0 7.0 -1.1 91.5- 8.0 1.0---- 0.0------------
1956-10-19 10.9 13.2 9.4 7.2 86.5- 7.0 2.0---- 0.0------------
1956-10-18 12.6 13.3 10.7 3.6 98.3- 8.0 1.7---- 4.2------------
1956-10-17 10.7 14.9 3.7 -4.3 73.3- 2.7 2.3---- 0.2------------
1956-10-16 6.0 14.1 -1.2 -6.8 81.0- 0.0 1.0---- 0.0------------
1956-10-15 4.1 12.8 -0.9 -6.9 86.0- 0.0 0.3---- 0.0------------
1956-10-14 7.3 12.0 4.6 3.5 82.8- 2.7 1.7---- 0.0------------
1956-10-13 11.0 12.6 9.2 6.3 76.8- 7.7 6.3---- 4.3------------
1956-10-12 10.2 11.8 9.2 8.0 81.3- 7.7 4.7---- 0.0------------
1956-10-11 9.4 12.0 4.5 1.6 86.8- 7.7 3.0---- 0.0------------
1956-10-10 5.3 10.7 -1.4 -2.6 81.3- 2.3 0.7---- 0.0------------
1956-10-09 5.9 10.4 2.8 11.0 96.3- 5.3 1.3---- 8.9------------
1956-10-08 6.0 9.3 3.3 6.2 84.0- 7.3 1.3---- 7.5------------
1956-10-07 6.2 9.7 3.8 0.7 85.3- 5.3 2.3---- 3.6------------
1956-10-06 5.8 9.4 3.1 1.5 90.3- 5.0 1.3---- 1.6------------
1956-10-05 6.4 9.8 4.7 3.2 92.5- 6.3 2.0---- 2.3------------
1956-10-04 9.6 13.7 7.2 0.8 87.3- 5.3 3.0---- 0.0------------
1956-10-03 10.5 14.7 7.2 11.6 92.0- 4.0 3.0---- 0.0------------
1956-10-02 15.7 19.5 11.3 6.2 87.5- 7.3 2.7---- 11.3------------
1956-10-01 12.9 17.1 8.7 4.2 95.0- 6.3 1.3---- 11.9------------
1956-09-30 12.3 18.2 8.8 6.9 84.3- 2.3 1.7---- 2.0------------
1956-09-29 13.4 16.9 12.2 10.7 85.0- 4.3 3.7---- 0.0------------
1956-09-28 15.1 17.5 13.3 12.6 85.3- 6.7 4.7---- 4.3------------
1956-09-27 14.1 16.2 10.9 7.2 92.0- 5.0 1.0---- 13.1------------
1956-09-26 14.3 21.7 9.2 6.4 73.3- 0.7 1.3---- 0.0------------
1956-09-25 13.3 21.0 5.4 2.6 71.3- 0.0 2.7---- 0.0------------
1956-09-24 11.2 17.4 6.2 3.7 57.0- 0.0 3.7---- 0.0------------
1956-09-23 12.8 18.9 8.7 6.7 74.5- 0.7 2.0---- 0.0------------
1956-09-22 13.3 19.8 7.0 3.7 73.0- 0.0 2.7---- 0.0------------
1956-09-21 10.9 19.0 2.5 -0.8 85.8- 0.0 0.3---- 0.0------------
1956-09-20 9.7 17.7 4.4 0.1 86.5- 2.0 0.0---- 0.0------------
1956-09-19 8.5 16.5 0.9 -2.1 85.3- 3.0 0.3---- 0.0------------
1956-09-18 7.9 15.0 2.5 -1.1 89.0- 4.0 0.3---- 0.0------------
1956-09-17 10.2 15.5 8.0 6.5 86.0- 4.7 1.0---- 3.3------------
1956-09-16 11.0 14.3 6.3 2.4 84.0- 6.3 2.3---- 3.2------------
1956-09-15 10.5 15.3 8.7 8.2 79.0- 5.3 1.7---- 0.0------------
1956-09-14 11.2 17.3 2.6 0.0 81.5- 2.3 0.7---- 0.3------------
1956-09-13 9.3 12.6 8.3 6.8 94.8- 6.0 3.3---- 9.1------------
1956-09-12 10.2 15.3 8.7 8.6 88.8- 4.0 4.0---- 3.8------------
1956-09-11 15.2 19.8 9.9 6.8 89.3- 5.7 0.3---- 11.4------------
216.5 ms

 

Źródłem pochodzenia danych jest Instytut Meteorologii i Gospodarki Wodnej – Państwowy Instytut Badawczy. Dane Instytutu Meteorologii i Gospodarki Wodnej – Państwowego Instytutu Badawczego zostały przetworzone.

Dane źródłowe można odnaleźć na stronie https://dane.imgw.pl